Aviation Digital Data Service (ADDS)

Output produced by METARs form (2029 UTC 02 October 2022)
found at http://www.aviationweather.gov/metar/data/
 
Forecast for: RJGG (NAGOYA/CHUBU , JP)
Text: TAF RJGG 021706Z 0218/0400 06004KT 9999 FEW020 BKN040
Forecast period: 1800 to 2200 UTC 02 October 2022
Forecast type: FROM: standard forecast or significant change
Winds: from the ENE (60 degrees) at 5 MPH (4 knots; 2.1 m/s)
Visibility: 6 or more miles (10+ km)
Ceiling: 4000 feet AGL
Clouds: few clouds at 2000 feet AGL
broken clouds at 4000 feet AGL
Weather: no significant weather forecast for this period
Text: BECMG 0222/0300 14012KT
Forecast period: 2200 UTC 02 October 2022 to 0000 UTC 04 October 2022
Forecast type: BECOMING: Conditions expected to become as follows by 0000 UTC 03 October 2022
Winds: from the SE (140 degrees) at 14 MPH (12 knots; 6.2 m/s)
Visibility: 6 or more miles (10+ km)
Ceiling: 4000 feet AGL
Clouds: few clouds at 2000 feet AGL
broken clouds at 4000 feet AGL
Weather: no significant weather forecast for this period